»·PEaware :: WAT202 PHNL-KLAX

WAT202 :: PHNL-KLAX

FLIGHT INFORMATION

Flight Status: Arrived
Operator:
Walker Air Transport
More flights by this operator :: More flights under this callsign
Pilot: Nick L. (7253)
Aircraft: AÉROSPATIALE-BAC CONCORDE
(CONC)
More flights by this aircraft type
Origin: PHNL Honolulu Intl
United States
Destination: KLAX Los Angeles Intl
United States
More flights between these airports :: More routes between these airports
Route: MKK4 EBBER R577 ELKEY SADDE8
File this flight plan on PilotEdge
Remarks:
Altitude:
(Current/Filed)
59,000ft
Speed:
(Current/Filed)
999kts
Departed: 10-Mar-21 04:30 PM
Arrived: 10-Mar-21 06:57 PM
Distance/Time
Traveled:
2217nm/2:26
Distance/Time
To Go:
Arrived

Flight Plot

Page will automatically refresh every two minutes.

Flight plan parsing failed; only flown route is shown


Map Options




Map Legend


Flown Route
Filed Route
Departure Airport
Arrival Airport
Navaid (VOR, NDB)
Fix

Horizontal Profiles

Position Reports

Time Latitude Longitude Heading Altitude Ground
Speed
10-Mar-21 15:57 21.333132 -157.924694 99 25ft 0kts
10-Mar-21 15:58 21.333132 -157.924694 99 25ft 0kts
10-Mar-21 15:59 21.333132 -157.924694 99 25ft 0kts
10-Mar-21 16:00 21.333132 -157.924694 99 25ft 0kts
10-Mar-21 16:01 21.333132 -157.924694 99 25ft 0kts
10-Mar-21 16:02 21.333132 -157.924694 99 25ft 0kts
10-Mar-21 16:03 21.333132 -157.924694 99 25ft 0kts
10-Mar-21 16:04 21.333132 -157.924694 99 25ft 0kts
10-Mar-21 16:05 21.333132 -157.924694 99 25ft 0kts
10-Mar-21 16:06 21.333132 -157.924694 99 25ft 0kts
10-Mar-21 16:07 21.333132 -157.924694 99 25ft 0kts
10-Mar-21 16:08 21.333132 -157.924694 99 25ft 0kts
10-Mar-21 16:09 21.333132 -157.924694 99 25ft 0kts
10-Mar-21 16:10 21.333132 -157.924694 99 25ft 0kts
10-Mar-21 16:11 21.333132 -157.924694 99 25ft 0kts
10-Mar-21 16:12 21.333132 -157.924694 99 25ft 0kts
10-Mar-21 16:13 21.333132 -157.924694 99 25ft 0kts
10-Mar-21 16:14 21.333132 -157.924694 99 25ft 0kts
10-Mar-21 16:15 21.333132 -157.924694 99 25ft 0kts
10-Mar-21 16:16 21.333132 -157.924694 99 25ft 0kts
10-Mar-21 16:17 21.333132 -157.924694 99 25ft 0kts
10-Mar-21 16:18 21.333132 -157.924694 99 25ft 0kts
10-Mar-21 16:19 21.333381 -157.925223 142 25ft 2kts
10-Mar-21 16:20 21.333893 -157.925361 188 25ft 1kts
10-Mar-21 16:21 21.333910 -157.925359 188 25ft 0kts
10-Mar-21 16:23 21.333909 -157.925359 188 25ft 0kts
10-Mar-21 16:24 21.332413 -157.925574 188 25ft 8kts
10-Mar-21 16:25 21.328589 -157.928897 190 25ft 24kts
10-Mar-21 16:26 21.327417 -157.932239 268 25ft 16kts
10-Mar-21 16:27 21.327392 -157.939423 270 25ft 27kts
10-Mar-21 16:28 21.326457 -157.943275 172 25ft 0kts
10-Mar-21 16:29 21.326233 -157.943252 176 25ft 5kts
10-Mar-21 16:30 21.325256 -157.941546 90 25ft 53kts
10-Mar-21 16:31 21.325245 -157.880347 99 2387ft 218kts
10-Mar-21 16:32 21.271105 -157.877442 219 4523ft 262kts
10-Mar-21 16:33 21.210125 -157.913679 156 7635ft 256kts
10-Mar-21 16:34 21.188678 -157.839968 92 9509ft 282kts
10-Mar-21 16:35 21.184371 -157.745671 97 11424ft 360kts
10-Mar-21 16:36 21.174957 -157.630520 97 14206ft 409kts
10-Mar-21 16:37 21.164997 -157.503874 97 20377ft 431kts
10-Mar-21 16:38 21.154675 -157.367908 97 25332ft 465kts
10-Mar-21 16:39 21.143327 -157.217975 97 28217ft 518kts
10-Mar-21 16:40 21.178005 -157.067003 68 28138ft 519kts
10-Mar-21 16:41 21.236066 -156.919944 68 28161ft 522kts
10-Mar-21 16:42 21.298398 -156.761397 68 28210ft 615kts
10-Mar-21 16:43 21.347400 -156.583883 89 28186ft 603kts
10-Mar-21 16:44 21.357675 -156.398811 89 28155ft 602kts
10-Mar-21 16:45 21.368014 -156.214448 89 28159ft 602kts
10-Mar-21 16:46 21.378477 -156.029934 89 28139ft 600kts
10-Mar-21 16:46 21.387998 -155.872592 89 31357ft 635kts
10-Mar-21 16:48 21.404069 -155.634407 89 35631ft 708kts
10-Mar-21 16:49 21.416790 -155.407080 89 37876ft 776kts
10-Mar-21 16:50 21.427927 -155.140198 89 43239ft 992kts
10-Mar-21 16:51 21.429031 -154.815703 89 48744ft 1107kts
10-Mar-21 16:51 21.426820 -154.525013 89 50373ft 1164kts
10-Mar-21 16:52 21.424883 -154.164318 89 51851ft 1174kts
10-Mar-21 16:54 21.501289 -153.755425 75 53674ft 1165kts
10-Mar-21 16:55 21.570575 -153.405818 77 54640ft 1163kts
10-Mar-21 16:56 21.715905 -153.092733 45 55675ft 1151kts
10-Mar-21 16:56 21.871010 -152.851690 70 56460ft 1144kts
10-Mar-21 16:57 22.019039 -152.536360 61 56826ft 1155kts
10-Mar-21 16:58 22.176225 -152.221789 61 57301ft 1156kts
10-Mar-21 16:59 22.332530 -151.906870 61 57871ft 1156kts
10-Mar-21 17:01 22.512755 -151.538650 61 58535ft 1158kts
10-Mar-21 17:01 22.641652 -151.273544 62 59123ft 1157kts
10-Mar-21 17:02 22.795710 -150.954826 62 59162ft 1159kts
10-Mar-21 17:03 22.948786 -150.636110 62 59161ft 1159kts
10-Mar-21 17:04 23.101213 -150.316693 62 59119ft 1160kts
10-Mar-21 17:05 23.252638 -149.997333 62 59134ft 1160kts
10-Mar-21 17:06 23.403372 -149.677323 62 59131ft 1161kts
10-Mar-21 17:07 23.553881 -149.355667 62 59131ft 1161kts
10-Mar-21 17:08 23.703297 -149.034205 63 59131ft 1161kts
10-Mar-21 17:09 23.852166 -148.711751 63 59131ft 1161kts
10-Mar-21 17:10 24.000994 -148.387143 63 59134ft 1162kts
10-Mar-21 17:11 24.148746 -148.062688 63 59143ft 1162kts
10-Mar-21 17:12 24.296013 -147.737057 63 59139ft 1162kts
10-Mar-21 17:13 24.442727 -147.410310 63 59141ft 1163kts
10-Mar-21 17:14 24.588832 -147.082598 63 59115ft 1163kts
10-Mar-21 17:15 24.733937 -146.754791 63 59123ft 1164kts
10-Mar-21 17:16 24.878617 -146.425551 63 59123ft 1164kts
10-Mar-21 17:17 25.022939 -146.094661 64 59121ft 1165kts
10-Mar-21 17:18 25.166125 -145.763982 64 59113ft 1166kts
10-Mar-21 17:19 25.308945 -145.431531 64 59114ft 1166kts
10-Mar-21 17:20 25.450819 -145.098438 64 59110ft 1166kts
10-Mar-21 17:21 25.592051 -144.764291 64 59096ft 1167kts
10-Mar-21 17:22 25.732037 -144.430532 64 59095ft 1167kts
10-Mar-21 17:23 25.871775 -144.094657 64 59095ft 1168kts
10-Mar-21 17:24 26.010183 -143.759418 65 59095ft 1168kts
10-Mar-21 17:25 26.148654 -143.421354 65 59101ft 1169kts
10-Mar-21 17:26 26.286503 -143.082102 65 59144ft 1170kts
10-Mar-21 17:27 26.423287 -142.742591 65 59077ft 1172kts
10-Mar-21 17:28 26.559499 -142.401715 65 59099ft 1172kts
10-Mar-21 17:29 26.694774 -142.060395 66 59093ft 1172kts
10-Mar-21 17:30 26.829630 -141.717287 66 59086ft 1173kts
10-Mar-21 17:31 26.963474 -141.373745 66 59087ft 1174kts
10-Mar-21 17:32 27.096443 -141.029548 66 59084ft 1174kts
10-Mar-21 17:33 27.228782 -140.683958 66 59086ft 1174kts
10-Mar-21 17:34 27.360044 -140.338256 66 59088ft 1174kts
10-Mar-21 17:35 27.490856 -139.990564 66 59070ft 1174kts
10-Mar-21 17:36 27.620735 -139.642228 66 59059ft 1175kts
10-Mar-21 17:37 27.750062 -139.292196 67 59057ft 1175kts
10-Mar-21 17:38 27.877813 -138.943229 67 59058ft 1175kts
10-Mar-21 17:39 28.005162 -138.592028 66 59059ft 1176kts
10-Mar-21 17:40 28.132077 -138.238748 67 59055ft 1177kts
10-Mar-21 17:41 28.257365 -137.886617 67 59008ft 1178kts
10-Mar-21 17:42 28.382580 -137.531308 67 59015ft 1177kts
10-Mar-21 17:43 28.506486 -137.176260 67 59011ft 1177kts
10-Mar-21 17:44 28.629772 -136.819497 67 59013ft 1178kts
10-Mar-21 17:45 28.752207 -136.461649 67 59014ft 1178kts
10-Mar-21 17:46 28.873447 -136.103709 68 59012ft 1178kts
10-Mar-21 17:47 28.993554 -135.745481 68 59013ft 1179kts
10-Mar-21 17:48 29.113512 -135.384003 68 59015ft 1180kts
10-Mar-21 17:49 29.232404 -135.021969 68 59011ft 1180kts
10-Mar-21 17:50 29.349866 -134.660501 68 59064ft 1181kts
10-Mar-21 17:51 29.467043 -134.296055 69 59047ft 1181kts
10-Mar-21 17:52 29.582992 -133.931475 69 59057ft 1182kts
10-Mar-21 17:53 29.698120 -133.565490 69 59060ft 1182kts
10-Mar-21 17:54 29.812193 -133.198853 70 59055ft 1182kts
10-Mar-21 17:55 29.925095 -132.831869 70 59059ft 1182kts
10-Mar-21 17:56 30.036991 -132.463990 69 59010ft 1183kts
10-Mar-21 17:57 30.148043 -132.094730 70 59063ft 1183kts
10-Mar-21 17:58 30.258027 -131.724729 70 59060ft 1183kts
10-Mar-21 17:59 30.366497 -131.355003 70 59061ft 1184kts
10-Mar-21 18:00 30.474137 -130.983531 71 59057ft 1183kts
10-Mar-21 18:01 30.580706 -130.611205 71 59060ft 1183kts
10-Mar-21 18:02 30.685894 -130.239288 71 59053ft 1183kts
10-Mar-21 18:03 30.790347 -129.865439 71 59052ft 1183kts
10-Mar-21 18:04 30.893696 -129.490791 71 59051ft 1183kts
10-Mar-21 18:05 30.995784 -129.116085 72 59050ft 1183kts
10-Mar-21 18:06 31.096617 -128.741291 72 59050ft 1183kts
10-Mar-21 18:07 31.196647 -128.364530 72 59052ft 1183kts
10-Mar-21 18:08 31.295621 -127.986791 72 59043ft 1183kts
10-Mar-21 18:09 31.393546 -127.608065 72 59041ft 1183kts
10-Mar-21 18:10 31.490427 -127.228240 73 59046ft 1184kts
10-Mar-21 18:11 31.586328 -126.847045 73 59060ft 1184kts
10-Mar-21 18:12 31.680971 -126.465580 73 59060ft 1185kts
10-Mar-21 18:13 31.774415 -126.083611 73 59058ft 1185kts
10-Mar-21 18:14 31.867125 -125.699157 73 59060ft 1186kts
10-Mar-21 18:15 31.958663 -125.313994 74 59060ft 1186kts
10-Mar-21 18:16 32.048598 -124.929960 74 59059ft 1186kts
10-Mar-21 18:17 32.133495 -124.562075 74 59058ft 1187kts
10-Mar-21 18:18 32.221358 -124.175651 75 59055ft 1187kts
10-Mar-21 18:19 32.303803 -123.786821 76 59057ft 1187kts
10-Mar-21 18:20 32.384135 -123.395873 76 59061ft 1188kts
10-Mar-21 18:21 32.463554 -123.003398 75 59061ft 1188kts
10-Mar-21 18:22 32.525183 -122.608630 77 59093ft 1189kts
10-Mar-21 18:23 32.613376 -122.223385 74 59073ft 1189kts
10-Mar-21 18:24 32.733958 -121.848491 56 59266ft 1188kts
10-Mar-21 18:25 32.924373 -121.537445 51 59060ft 1019kts
10-Mar-21 18:26 33.064859 -121.276015 59 59070ft 861kts
10-Mar-21 18:27 33.189642 -121.017667 59 59064ft 885kts
10-Mar-21 18:28 33.311120 -120.764431 59 56128ft 832kts
10-Mar-21 18:29 33.422634 -120.530277 59 49207ft 765kts
10-Mar-21 18:30 33.524892 -120.314256 58 42515ft 704kts
10-Mar-21 18:31 33.618400 -120.115614 58 36290ft 648kts
10-Mar-21 18:32 33.704528 -119.933704 58 32572ft 621kts
10-Mar-21 18:33 33.790364 -119.750217 57 30829ft 614kts
10-Mar-21 18:34 33.873948 -119.571498 56 27453ft 593kts
10-Mar-21 18:35 33.954293 -119.399015 56 24251ft 566kts
10-Mar-21 18:36 34.027294 -119.239921 58 21169ft 531kts
10-Mar-21 18:37 34.092299 -119.089014 78 18906ft 475kts
10-Mar-21 18:38 34.086145 -118.939002 106 16786ft 411kts
10-Mar-21 18:39 34.052273 -118.815189 111 14541ft 361kts
10-Mar-21 18:40 34.035564 -118.707607 97 12166ft 319kts
10-Mar-21 18:41 34.024632 -118.604186 97 9956ft 292kts
10-Mar-21 18:42 34.015344 -118.505005 97 9962ft 273kts
10-Mar-21 18:43 34.024084 -118.413176 81 9013ft 268kts
10-Mar-21 18:44 34.035410 -118.323817 81 7283ft 261kts
10-Mar-21 18:45 34.046840 -118.237678 81 5260ft 253kts
10-Mar-21 18:46 34.058115 -118.154340 81 4812ft 248kts
10-Mar-21 18:47 34.069627 -118.069291 81 4989ft 252kts
10-Mar-21 18:48 34.046403 -118.003983 170 5025ft 231kts
10-Mar-21 18:49 33.991578 -118.014628 258 5071ft 216kts
10-Mar-21 18:50 33.970767 -118.081187 260 4980ft 200kts
10-Mar-21 18:51 33.963579 -118.145333 261 4045ft 187kts
10-Mar-21 18:52 33.957153 -118.207685 261 3035ft 184kts
10-Mar-21 18:53 33.950912 -118.269726 261 1969ft 185kts
10-Mar-21 18:54 33.944588 -118.332782 261 1033ft 185kts
10-Mar-21 18:55 33.938420 -118.394050 262 118ft 155kts
10-Mar-21 18:56 33.937203 -118.412715 5 117ft 3kts
10-Mar-21 18:57 33.937476 -118.412441 72 117ft 0kts
10-Mar-21 18:58 33.937802 -118.409468 82 117ft 19kts
10-Mar-21 18:59 33.939592 -118.406547 356 117ft 3kts
10-Mar-21 19:00 33.939603 -118.406548 355 117ft 0kts
10-Mar-21 19:01 33.939603 -118.406548 355 117ft 0kts
10-Mar-21 19:02 33.939603 -118.406548 355 117ft 0kts

Navigation Log

Ident Type
Flight plan parsing failed, navigation log unavailable